createdAt,value
2023-03-29T05:01:52.478Z,97360.78
2023-03-29T05:03:55.346Z,97352.22
2023-03-29T05:06:06.568Z,97354.94
2023-03-29T05:08:10.595Z,97358.41
2023-03-29T05:10:13.449Z,97355.28
2023-03-29T05:12:16.430Z,97347.88
2023-03-29T05:14:19.204Z,97340.44
2023-03-29T05:16:21.978Z,97348.75
2023-03-29T05:18:26.273Z,97350.91
2023-03-29T05:20:29.826Z,97347.34
2023-03-29T05:22:32.758Z,97334.94
2023-03-29T05:24:35.518Z,97342.16
2023-03-29T05:26:38.437Z,97334.63
2023-03-29T05:28:41.237Z,97338.56
2023-03-29T05:30:44.517Z,97339.00
2023-03-29T05:32:48.024Z,97343.91
2023-03-29T05:34:52.869Z,97349.84
2023-03-29T05:36:57.006Z,97355.41
2023-03-29T05:39:01.786Z,97356.84
2023-03-29T05:41:06.177Z,97353.00
2023-03-29T05:43:09.121Z,97345.50
2023-03-29T05:45:12.498Z,97333.88
2023-03-29T05:47:15.492Z,97336.94
2023-03-29T05:49:18.674Z,97343.88
2023-03-29T05:51:24.469Z,97355.13
2023-03-29T05:53:28.291Z,97358.41
2023-03-29T05:55:31.118Z,97363.34
2023-03-29T05:57:36.703Z,97363.97
2023-03-29T05:59:39.550Z,97369.88
2023-03-29T06:01:42.687Z,97372.34
2023-03-29T06:03:47.069Z,97367.88
2023-03-29T06:05:57.616Z,97368.31
2023-03-29T06:08:01.865Z,97369.97
2023-03-29T06:10:05.245Z,97374.44
2023-03-29T06:12:09.022Z,97372.78
2023-03-29T06:14:13.413Z,97376.09
2023-03-29T06:16:16.563Z,97367.09
2023-03-29T06:18:19.888Z,97367.09
2023-03-29T06:20:22.678Z,97367.72
2023-03-29T06:22:25.571Z,97382.63
2023-03-29T06:24:29.922Z,97381.63
2023-03-29T06:26:32.717Z,97389.19
2023-03-29T06:28:36.801Z,97396.78
2023-03-29T06:30:39.604Z,97396.59
2023-03-29T06:32:42.578Z,97389.25
2023-03-29T06:34:45.414Z,97384.75
2023-03-29T06:36:50.901Z,97389.06
2023-03-29T06:38:53.876Z,97395.81
2023-03-29T06:41:06.134Z,97395.81
2023-03-29T06:43:09.142Z,97399.72
2023-03-29T06:45:12.732Z,97396.69
2023-03-29T06:47:15.870Z,97399.75
2023-03-29T06:49:18.883Z,97398.75
2023-03-29T06:51:23.387Z,97391.44
2023-03-29T06:53:28.140Z,97392.06
2023-03-29T06:55:31.691Z,97399.00
2023-03-29T06:57:35.992Z,97403.69
2023-03-29T06:59:38.584Z,97398.38
2023-03-29T07:01:41.641Z,97391.44
2023-03-29T07:03:46.697Z,97383.06
2023-03-29T07:05:51.774Z,97395.13
2023-03-29T07:07:56.551Z,97396.56
2023-03-29T07:10:01.726Z,97400.50
2023-03-29T07:12:05.080Z,97400.09
2023-03-29T07:14:09.608Z,97406.06
2023-03-29T07:16:13.906Z,97409.91
2023-03-29T07:18:18.362Z,97411.56
2023-03-29T07:20:22.941Z,97414.22
2023-03-29T07:22:26.101Z,97410.91
2023-03-29T07:24:29.470Z,97426.03
2023-03-29T07:26:32.314Z,97441.94
2023-03-29T07:28:37.509Z,97427.03
2023-03-29T07:30:41.962Z,97428.69
2023-03-29T07:32:46.895Z,97434.00
2023-03-29T07:34:50.102Z,97433.63
2023-03-29T07:36:53.092Z,97431.59
2023-03-29T07:38:57.032Z,97428.31
2023-03-29T07:41:00.446Z,97429.31
2023-03-29T07:43:08.825Z,97431.94
2023-03-29T07:45:13.660Z,97435.63
2023-03-29T07:47:17.838Z,97428.69
2023-03-29T07:49:22.220Z,97428.31
2023-03-29T07:51:25.374Z,97426.28
2023-03-29T07:53:29.645Z,97422.88
2023-03-29T07:55:32.745Z,97424.72
2023-03-29T07:57:36.476Z,97420.69
2023-03-29T07:59:39.258Z,97433.75
2023-03-29T08:01:42.389Z,97432.94
2023-03-29T08:03:46.616Z,97441.53
2023-03-29T08:05:49.589Z,97430.91
2023-03-29T08:07:52.921Z,97435.81
2023-03-29T08:09:56.328Z,97432.16
2023-03-29T08:12:00.264Z,97431.13
2023-03-29T08:14:03.161Z,97440.97
2023-03-29T08:16:06.836Z,97442.84
2023-03-29T08:18:09.925Z,97449.41
2023-03-29T08:20:16.662Z,97456.16
2023-03-29T08:22:19.759Z,97455.16
2023-03-29T08:24:22.713Z,97452.28
2023-03-29T08:26:25.376Z,97456.38
2023-03-29T08:28:28.366Z,97457.03
2023-03-29T08:30:31.272Z,97448.25
2023-03-29T08:32:34.131Z,97438.00
2023-03-29T08:34:37.424Z,97442.28
2023-03-29T08:36:41.828Z,97443.09
2023-03-29T08:38:44.641Z,97441.09
2023-03-29T08:40:49.209Z,97443.97
2023-03-29T08:43:04.549Z,97451.16
2023-03-29T08:45:14.036Z,97444.22
2023-03-29T08:47:22.472Z,97441.81
2023-03-29T08:49:26.994Z,97444.69
2023-03-29T08:51:33.645Z,97442.03
2023-03-29T08:53:44.965Z,97453.28
2023-03-29T08:55:52.046Z,97445.72
2023-03-29T08:57:56.790Z,97453.91
2023-03-29T09:00:01.900Z,97450.66
2023-03-29T09:02:12.661Z,97452.94
2023-03-29T09:04:20.140Z,97449.25
2023-03-29T09:06:23.368Z,97450.06
2023-03-29T09:08:28.058Z,97446.22
2023-03-29T09:10:40.076Z,97442.34
2023-03-29T09:12:59.506Z,97441.31
2023-03-29T09:15:12.618Z,97446.44
2023-03-29T09:17:28.361Z,97449.69
2023-03-29T09:19:38.708Z,97442.75
2023-03-29T09:21:47.558Z,97447.25
2023-03-29T09:24:25.233Z,97449.28
2023-03-29T09:26:34.829Z,97455.03
2023-03-29T09:28:43.329Z,97442.97
2023-03-29T09:30:56.979Z,97441.13
2023-03-29T09:33:05.518Z,97447.66
2023-03-29T09:35:18.347Z,97441.13
2023-03-29T09:37:26.796Z,97447.06
2023-03-29T09:39:30.936Z,97446.69
2023-03-29T09:41:41.182Z,97448.09
2023-03-29T09:43:46.025Z,97461.56
2023-03-29T09:45:54.519Z,97452.13
2023-03-29T09:48:02.045Z,97452.53
2023-03-29T09:50:23.106Z,97450.47
2023-03-29T09:52:30.659Z,97449.47
2023-03-29T09:54:33.794Z,97443.53
2023-03-29T09:56:38.120Z,97441.69
2023-03-29T09:58:43.488Z,97439.84
2023-03-29T10:00:48.515Z,97438.81
2023-03-29T10:02:52.775Z,97446.41
2023-03-29T10:04:58.812Z,97439.88
2023-03-29T10:07:01.727Z,97437.22
2023-03-29T10:09:05.934Z,97437.44
2023-03-29T10:11:13.561Z,97438.41
2023-03-29T10:13:23.866Z,97439.44
2023-03-29T10:15:30.386Z,97436.41
2023-03-29T10:17:40.586Z,97437.00
2023-03-29T10:19:50.331Z,97427.59
2023-03-29T10:21:55.187Z,97435.81
2023-03-29T10:23:59.704Z,97437.84
2023-03-29T10:26:04.772Z,97435.84
2023-03-29T10:28:13.016Z,97432.16
2023-03-29T10:30:24.777Z,97435.03
2023-03-29T10:32:32.454Z,97424.38
2023-03-29T10:34:35.490Z,97427.63
2023-03-29T10:36:42.553Z,97430.66
2023-03-29T10:38:45.703Z,97438.28
2023-03-29T10:40:51.664Z,97432.94
2023-03-29T10:42:54.866Z,97419.84
2023-03-29T10:44:59.298Z,97423.72
2023-03-29T10:47:17.556Z,97433.31
2023-03-29T10:49:22.734Z,97433.78
2023-03-29T10:51:30.052Z,97444.41
2023-03-29T10:53:34.683Z,97441.53
2023-03-29T10:55:44.941Z,97424.75
2023-03-29T10:57:58.835Z,97403.25
2023-03-29T11:00:07.982Z,97407.97
2023-03-29T11:02:49.492Z,97423.91
2023-03-29T11:05:06.829Z,97426.38
2023-03-29T11:07:27.178Z,97423.50
2023-03-29T11:09:44.272Z,97411.66
2023-03-29T11:12:14.497Z,97394.06
2023-03-29T11:14:29.100Z,97396.50
2023-03-29T11:16:39.933Z,97418.19
2023-03-29T11:18:56.899Z,97420.25
2023-03-29T11:21:10.790Z,97422.69
2023-03-29T11:23:28.396Z,97405.09
2023-03-29T11:25:46.177Z,97398.94
2023-03-29T11:27:54.408Z,97390.56
2023-03-29T11:30:08.523Z,97388.47
2023-03-29T11:32:16.002Z,97400.56
2023-03-29T11:34:29.545Z,97410.59
2023-03-29T11:36:42.410Z,97404.25
2023-03-29T11:38:51.089Z,97406.31
2023-03-29T11:41:03.410Z,97407.75
2023-03-29T11:43:12.522Z,97404.69
2023-03-29T11:45:34.145Z,97400.22
2023-03-29T11:47:42.094Z,97395.53
2023-03-29T11:49:49.263Z,97387.56
2023-03-29T11:51:58.018Z,97402.91
2023-03-29T11:54:05.573Z,97397.59
2023-03-29T11:56:13.201Z,97399.03
2023-03-29T11:58:25.325Z,97405.16
2023-03-29T12:00:32.747Z,97404.75
2023-03-29T12:02:39.363Z,97406.00
2023-03-29T12:04:47.171Z,97393.31
2023-03-29T12:06:57.434Z,97379.78
2023-03-29T12:09:05.327Z,97365.66
2023-03-29T12:11:15.154Z,97361.78
2023-03-29T12:13:22.919Z,97366.88
2023-03-29T12:15:28.811Z,97383.50
2023-03-29T12:17:34.078Z,97370.19
2023-03-29T12:19:43.712Z,97355.41
2023-03-29T12:21:48.441Z,97352.75
2023-03-29T12:23:53.415Z,97331.09
2023-03-29T12:26:05.053Z,97339.25
2023-03-29T12:28:24.192Z,97352.56
2023-03-29T12:30:40.186Z,97353.97
2023-03-29T12:32:55.661Z,97346.78
2023-03-29T12:35:12.752Z,97340.66
2023-03-29T12:37:32.256Z,97340.41
2023-03-29T12:39:39.497Z,97344.91
2023-03-29T12:41:46.022Z,97351.44
2023-03-29T12:43:52.559Z,97353.28
2023-03-29T12:45:59.103Z,97347.31
2023-03-29T12:48:02.773Z,97341.38
2023-03-29T12:50:07.952Z,97342.00
2023-03-29T12:52:27.490Z,97334.16
2023-03-29T12:54:34.353Z,97333.75
2023-03-29T12:56:42.421Z,97341.34
2023-03-29T12:58:55.114Z,97341.72
2023-03-29T13:01:06.811Z,97342.13
2023-03-29T13:03:22.601Z,97333.97
2023-03-29T13:05:32.876Z,97340.69
2023-03-29T13:07:47.470Z,97327.97
2023-03-29T13:09:53.038Z,97335.75
2023-03-29T13:11:59.314Z,97332.06
2023-03-29T13:14:05.443Z,97330.81
2023-03-29T13:16:13.918Z,97328.78
2023-03-29T13:18:37.392Z,97318.13
2023-03-29T13:20:47.774Z,97305.78
2023-03-29T13:23:04.353Z,97318.13
2023-03-29T13:25:20.005Z,97311.75
2023-03-29T13:27:37.281Z,97300.88
2023-03-29T13:29:57.654Z,97308.59
2023-03-29T13:32:07.267Z,97300.19
2023-03-29T13:34:22.667Z,97285.59
2023-03-29T13:36:44.326Z,97289.47
2023-03-29T13:38:49.726Z,97289.06
2023-03-29T13:41:02.727Z,97279.00
2023-03-29T13:43:20.161Z,97282.84
2023-03-29T13:45:27.613Z,97277.69
2023-03-29T13:47:48.972Z,97277.69
2023-03-29T13:50:05.949Z,97279.34
2023-03-29T13:52:16.760Z,97277.25
2023-03-29T13:54:28.014Z,97277.63
2023-03-29T13:56:35.584Z,97277.00
2023-03-29T13:58:46.465Z,97272.25
2023-03-29T14:00:54.284Z,97264.84
2023-03-29T14:03:01.418Z,97259.06
2023-03-29T14:05:09.160Z,97266.22
2023-03-29T14:07:16.167Z,97254.50
2023-03-29T14:09:23.883Z,97248.81
2023-03-29T14:11:28.988Z,97251.47
2023-03-29T14:13:32.207Z,97248.59
2023-03-29T14:15:46.046Z,97253.69
2023-03-29T14:17:49.127Z,97245.84
2023-03-29T14:19:52.360Z,97241.31
2023-03-29T14:21:55.450Z,97237.63
2023-03-29T14:24:02.640Z,97228.38
2023-03-29T14:26:08.766Z,97225.63
2023-03-29T14:28:21.054Z,97225.25
2023-03-29T14:30:28.299Z,97233.09
2023-03-29T14:32:33.163Z,97230.22
2023-03-29T14:34:36.310Z,97233.50
2023-03-29T14:36:40.219Z,97229.78
2023-03-29T14:38:53.249Z,97232.59
2023-03-29T14:41:06.879Z,97225.19
2023-03-29T14:43:11.222Z,97224.75
2023-03-29T14:45:16.514Z,97224.75
2023-03-29T14:47:26.587Z,97218.84
2023-03-29T14:49:31.416Z,97224.19
2023-03-29T14:51:34.820Z,97220.47
2023-03-29T14:53:38.994Z,97208.97
2023-03-29T14:55:42.669Z,97207.13
2023-03-29T14:57:49.185Z,97203.63
2023-03-29T14:59:55.681Z,97204.88
2023-03-29T15:01:58.527Z,97205.69
2023-03-29T15:04:05.646Z,97198.50
2023-03-29T15:06:10.035Z,97194.81
2023-03-29T15:08:18.688Z,97194.81
2023-03-29T15:10:21.702Z,97192.75
2023-03-29T15:12:24.790Z,97193.56
2023-03-29T15:14:33.589Z,97189.25
2023-03-29T15:16:40.052Z,97184.72
2023-03-29T15:18:45.202Z,97182.06
2023-03-29T15:20:54.399Z,97185.78
2023-03-29T15:23:01.076Z,97182.47
2023-03-29T15:25:03.986Z,97178.19
2023-03-29T15:27:15.756Z,97174.47
2023-03-29T15:29:24.371Z,97177.16
2023-03-29T15:31:34.543Z,97168.72
2023-03-29T15:33:38.608Z,97170.94
2023-03-29T15:35:41.872Z,97163.50
2023-03-29T15:37:44.598Z,97163.50
2023-03-29T15:39:48.982Z,97159.38
2023-03-29T15:41:53.831Z,97161.81
2023-03-29T15:44:00.076Z,97153.63
2023-03-29T15:46:03.089Z,97161.63
2023-03-29T15:48:15.444Z,97150.72
2023-03-29T15:50:18.312Z,97148.28
2023-03-29T15:52:21.100Z,97138.84
2023-03-29T15:54:24.672Z,97140.47
2023-03-29T15:56:29.366Z,97138.03
2023-03-29T15:58:33.542Z,97137.88
2023-03-29T16:00:40.633Z,97129.50
2023-03-29T16:02:43.578Z,97129.03
2023-03-29T16:04:46.606Z,97127.78
2023-03-29T16:06:52.758Z,97132.69
2023-03-29T16:08:57.220Z,97122.59
2023-03-29T16:11:00.424Z,97125.28
2023-03-29T16:13:04.774Z,97124.25
2023-03-29T16:15:16.561Z,97121.78
2023-03-29T16:17:19.357Z,97112.56
2023-03-29T16:19:22.293Z,97108.97
2023-03-29T16:21:25.638Z,97117.19
2023-03-29T16:23:28.604Z,97111.03
2023-03-29T16:25:31.348Z,97107.91
2023-03-29T16:27:34.137Z,97110.94
2023-03-29T16:29:38.306Z,97115.00
2023-03-29T16:31:41.585Z,97111.34
2023-03-29T16:33:44.554Z,97104.78
2023-03-29T16:35:47.537Z,97106.66
2023-03-29T16:37:50.374Z,97100.50
2023-03-29T16:39:53.671Z,97101.91
2023-03-29T16:41:56.727Z,97092.03
2023-03-29T16:43:59.857Z,97096.34
2023-03-29T16:46:06.683Z,97095.75
2023-03-29T16:48:13.112Z,97091.69
2023-03-29T16:50:17.969Z,97087.16
2023-03-29T16:52:21.129Z,97084.03
2023-03-29T16:54:25.776Z,97091.81
2023-03-29T16:56:28.778Z,97086.69
2023-03-29T16:58:31.681Z,97095.53
2023-03-29T17:00:34.451Z,97093.06
2023-03-29T17:02:38.552Z,97095.75
2023-03-29T17:04:41.394Z,97086.34
2023-03-29T17:06:44.211Z,97085.97
2023-03-29T17:08:47.342Z,97089.88
2023-03-29T17:10:53.919Z,97083.59
2023-03-29T17:12:56.616Z,97089.63
2023-03-29T17:14:59.475Z,97097.22
2023-03-29T17:17:02.393Z,97104.06
2023-03-29T17:19:06.536Z,97101.03
2023-03-29T17:21:09.764Z,97098.19
2023-03-29T17:23:12.743Z,97102.13
2023-03-29T17:25:15.573Z,97099.28
2023-03-29T17:27:18.801Z,97105.66
2023-03-29T17:29:21.614Z,97097.31
2023-03-29T17:31:24.513Z,97090.78
2023-03-29T17:33:27.261Z,97094.69
2023-03-29T17:35:31.577Z,97087.13
2023-03-29T17:37:34.390Z,97088.19
2023-03-29T17:39:37.746Z,97092.91
2023-03-29T17:41:40.795Z,97090.69
2023-03-29T17:43:43.637Z,97084.78
2023-03-29T17:45:46.550Z,97081.25
2023-03-29T17:47:49.335Z,97086.00
2023-03-29T17:49:52.181Z,97087.03
2023-03-29T17:51:56.374Z,97082.97
2023-03-29T17:53:59.320Z,97087.50
2023-03-29T17:56:02.366Z,97084.00
2023-03-29T17:58:05.522Z,97079.72
2023-03-29T18:00:12.066Z,97076.47
2023-03-29T18:02:18.257Z,97078.50
2023-03-29T18:04:21.118Z,97093.69
2023-03-29T18:06:23.936Z,97085.31
2023-03-29T18:08:28.218Z,97094.94
2023-03-29T18:10:31.220Z,97084.72
2023-03-29T18:12:33.972Z,97077.53
2023-03-29T18:14:37.021Z,97075.91
2023-03-29T18:16:41.303Z,97076.97
2023-03-29T18:18:46.300Z,97084.13
2023-03-29T18:20:49.047Z,97091.31
2023-03-29T18:22:51.835Z,97096.44
2023-03-29T18:24:56.337Z,97095.16
2023-03-29T18:26:59.271Z,97113.00
2023-03-29T18:29:02.090Z,97103.97
2023-03-29T18:31:05.505Z,97100.28
2023-03-29T18:33:08.351Z,97093.09
2023-03-29T18:35:11.985Z,97079.75
2023-03-29T18:37:17.339Z,97073.19
2023-03-29T18:39:20.085Z,97063.94
2023-03-29T18:41:24.449Z,97071.94
2023-03-29T18:43:27.168Z,97076.00
2023-03-29T18:45:30.066Z,97073.94
2023-03-29T18:47:32.961Z,97073.72
2023-03-29T18:49:36.530Z,97075.94
2023-03-29T18:51:39.401Z,97074.69
2023-03-29T18:53:43.662Z,97085.16
2023-03-29T18:55:46.538Z,97086.53
2023-03-29T18:57:50.729Z,97090.41
2023-03-29T18:59:53.554Z,97092.66
2023-03-29T19:01:56.318Z,97091.59
2023-03-29T19:03:59.176Z,97099.38
2023-03-29T19:06:02.706Z,97099.16
2023-03-29T19:08:06.943Z,97110.41
2023-03-29T19:10:12.197Z,97113.31
2023-03-29T19:12:17.549Z,97110.41
2023-03-29T19:14:24.181Z,97105.47
2023-03-29T19:16:27.644Z,97100.34
2023-03-29T19:18:30.459Z,97101.75
2023-03-29T19:20:33.282Z,97103.16
2023-03-29T19:22:36.280Z,97099.47
2023-03-29T19:24:39.221Z,97103.97
2023-03-29T19:26:43.557Z,97108.06
2023-03-29T19:28:46.457Z,97112.13
2023-03-29T19:30:50.718Z,97109.22
2023-03-29T19:32:53.700Z,97109.03
2023-03-29T19:34:58.375Z,97106.97
2023-03-29T19:37:01.429Z,97105.91
2023-03-29T19:39:04.420Z,97114.75
2023-03-29T19:41:08.855Z,97104.44
2023-03-29T19:43:16.268Z,97108.72
2023-03-29T19:45:19.108Z,97106.69
2023-03-29T19:47:23.037Z,97106.88
2023-03-29T19:49:26.021Z,97108.13
2023-03-29T19:51:29.330Z,97110.81
2023-03-29T19:53:33.158Z,97106.28
2023-03-29T19:55:37.739Z,97107.09
2023-03-29T19:57:40.649Z,97100.94
2023-03-29T19:59:44.415Z,97085.97
2023-03-29T20:01:51.093Z,97086.56
2023-03-29T20:03:55.577Z,97090.50
2023-03-29T20:05:58.651Z,97093.16
2023-03-29T20:08:02.264Z,97089.31
2023-03-29T20:10:05.652Z,97092.22
2023-03-29T20:12:08.902Z,97092.41
2023-03-29T20:14:12.276Z,97092.41
2023-03-29T20:16:17.193Z,97087.06
2023-03-29T20:18:20.703Z,97085.22
2023-03-29T20:20:25.206Z,97091.19
2023-03-29T20:22:30.843Z,97094.06
2023-03-29T20:24:34.768Z,97090.78
2023-03-29T20:26:37.970Z,97086.72
2023-03-29T20:28:40.887Z,97079.97
2023-03-29T20:30:44.236Z,97081.25
2023-03-29T20:32:47.665Z,97080.63
2023-03-29T20:34:50.690Z,97080.63
2023-03-29T20:37:00.608Z,97070.41
2023-03-29T20:39:04.970Z,97067.16
2023-03-29T20:41:09.207Z,97078.84
2023-03-29T20:43:18.829Z,97078.03
2023-03-29T20:45:21.605Z,97079.09
2023-03-29T20:47:24.773Z,97077.44
2023-03-29T20:49:27.528Z,97084.63
2023-03-29T20:51:31.925Z,97085.69
2023-03-29T20:53:36.080Z,97082.38
2023-03-29T20:55:39.075Z,97080.75
2023-03-29T20:57:42.303Z,97083.44
2023-03-29T20:59:46.119Z,97078.91
2023-03-29T21:01:50.359Z,97074.19
2023-03-29T21:03:53.299Z,97080.34
2023-03-29T21:05:58.114Z,97079.31
2023-03-29T21:08:01.397Z,97081.16
2023-03-29T21:10:06.936Z,97086.84
2023-03-29T21:12:09.667Z,97086.84
2023-03-29T21:14:12.532Z,97084.19
2023-03-29T21:16:15.714Z,97092.19
2023-03-29T21:18:18.532Z,97082.34
2023-03-29T21:20:21.358Z,97084.78
2023-03-29T21:22:24.665Z,97074.94
2023-03-29T21:24:27.376Z,97082.69
2023-03-29T21:26:31.506Z,97072.03
2023-03-29T21:28:34.740Z,97067.50
2023-03-29T21:30:37.552Z,97072.44
2023-03-29T21:32:41.471Z,97065.25
2023-03-29T21:34:44.301Z,97060.72
2023-03-29T21:36:47.300Z,97053.53
2023-03-29T21:38:50.105Z,97068.72
2023-03-29T21:40:53.308Z,97067.09
2023-03-29T21:42:57.723Z,97061.31
2023-03-29T21:45:01.022Z,97063.97
2023-03-29T21:47:04.196Z,97068.50
2023-03-29T21:49:06.965Z,97059.69
